sensor_id;sensor_type;location;lat;lon;timestamp;pressure;altitude;pressure_sealevel;temperature;humidity
20889;BME280;10604;51.976;7.594;2023-02-04T00:00:21;102284.25;;;7.15;85.86
20889;BME280;10604;51.976;7.594;2023-02-04T00:02:47;102286.69;;;6.96;85.71
20889;BME280;10604;51.976;7.594;2023-02-04T00:05:13;102289.38;;;7.02;86.30
20889;BME280;10604;51.976;7.594;2023-02-04T00:07:40;102298.94;;;6.96;86.43
20889;BME280;10604;51.976;7.594;2023-02-04T00:10:05;102304.09;;;6.90;86.96
20889;BME280;10604;51.976;7.594;2023-02-04T00:12:31;102299.81;;;6.95;86.82
20889;BME280;10604;51.976;7.594;2023-02-04T00:14:58;102312.91;;;6.95;87.29
20889;BME280;10604;51.976;7.594;2023-02-04T00:17:23;102310.94;;;6.73;87.11
20889;BME280;10604;51.976;7.594;2023-02-04T00:19:49;102312.69;;;6.74;87.22
20889;BME280;10604;51.976;7.594;2023-02-04T00:22:14;102316.97;;;6.65;87.68
20889;BME280;10604;51.976;7.594;2023-02-04T00:24:39;102310.00;;;6.67;87.79
20889;BME280;10604;51.976;7.594;2023-02-04T00:27:07;102317.88;;;6.67;87.66
20889;BME280;10604;51.976;7.594;2023-02-04T00:29:32;102321.28;;;6.63;88.16
20889;BME280;10604;51.976;7.594;2023-02-04T00:31:58;102314.41;;;6.72;87.91
20889;BME280;10604;51.976;7.594;2023-02-04T00:34:23;102314.34;;;6.68;88.53
20889;BME280;10604;51.976;7.594;2023-02-04T00:36:49;102313.53;;;6.71;88.65
20889;BME280;10604;51.976;7.594;2023-02-04T00:39:14;102331.75;;;6.60;88.63
20889;BME280;10604;51.976;7.594;2023-02-04T00:41:40;102331.84;;;6.69;88.54
20889;BME280;10604;51.976;7.594;2023-02-04T00:44:05;102337.03;;;6.63;88.78
20889;BME280;10604;51.976;7.594;2023-02-04T00:46:31;102342.47;;;6.80;88.21
20889;BME280;10604;51.976;7.594;2023-02-04T00:48:56;102350.22;;;6.71;88.52
20889;BME280;10604;51.976;7.594;2023-02-04T00:51:21;102355.34;;;6.62;88.92
20889;BME280;10604;51.976;7.594;2023-02-04T00:53:47;102359.75;;;6.64;88.93
20889;BME280;10604;51.976;7.594;2023-02-04T00:56:12;102353.78;;;6.75;88.85
20889;BME280;10604;51.976;7.594;2023-02-04T00:58:37;102356.41;;;6.75;88.54
20889;BME280;10604;51.976;7.594;2023-02-04T01:01:03;102352.91;;;6.77;89.26
20889;BME280;10604;51.976;7.594;2023-02-04T01:03:28;102352.88;;;6.76;89.41
20889;BME280;10604;51.976;7.594;2023-02-04T01:05:54;102359.97;;;6.83;89.56
20889;BME280;10604;51.976;7.594;2023-02-04T01:08:19;102361.41;;;6.56;89.80
20889;BME280;10604;51.976;7.594;2023-02-04T01:10:45;102365.94;;;6.69;90.12
20889;BME280;10604;51.976;7.594;2023-02-04T01:13:10;102367.75;;;6.74;88.82
20889;BME280;10604;51.976;7.594;2023-02-04T01:15:35;102370.38;;;6.77;89.03
20889;BME280;10604;51.976;7.594;2023-02-04T01:18:01;102379.09;;;6.76;88.93
20889;BME280;10604;51.976;7.594;2023-02-04T01:20:27;102372.97;;;6.75;89.31
20889;BME280;10604;51.976;7.594;2023-02-04T01:22:53;102380.84;;;6.74;89.43
20889;BME280;10604;51.976;7.594;2023-02-04T01:25:18;102380.00;;;6.76;89.63
20889;BME280;10604;51.976;7.594;2023-02-04T01:27:44;102381.63;;;6.66;89.37
20889;BME280;10604;51.976;7.594;2023-02-04T01:30:10;102377.25;;;6.65;89.66
20889;BME280;10604;51.976;7.594;2023-02-04T01:32:36;102387.84;;;6.73;89.80
20889;BME280;10604;51.976;7.594;2023-02-04T01:35:02;102387.75;;;6.68;89.51
20889;BME280;10604;51.976;7.594;2023-02-04T01:37:28;102398.34;;;6.75;90.20
20889;BME280;10604;51.976;7.594;2023-02-04T01:39:53;102401.97;;;6.86;89.36
20889;BME280;10604;51.976;7.594;2023-02-04T01:42:19;102397.50;;;6.79;89.65
20889;BME280;10604;51.976;7.594;2023-02-04T01:44:44;102398.44;;;6.81;89.52
20889;BME280;10604;51.976;7.594;2023-02-04T01:47:10;102404.56;;;6.81;90.62
20889;BME280;10604;51.976;7.594;2023-02-04T01:49:36;102403.00;;;7.00;89.92
20889;BME280;10604;51.976;7.594;2023-02-04T01:52:02;102402.16;;;7.01;89.95
20889;BME280;10604;51.976;7.594;2023-02-04T01:54:28;102416.09;;;6.98;89.71
20889;BME280;10604;51.976;7.594;2023-02-04T01:56:53;102416.06;;;6.94;90.20
20889;BME280;10604;51.976;7.594;2023-02-04T01:59:20;102418.72;;;6.95;90.47
20889;BME280;10604;51.976;7.594;2023-02-04T02:01:47;102423.13;;;7.01;90.06
20889;BME280;10604;51.976;7.594;2023-02-04T02:04:17;102426.75;;;7.09;90.37
20889;BME280;10604;51.976;7.594;2023-02-04T02:06:48;102432.84;;;7.08;90.25
20889;BME280;10604;51.976;7.594;2023-02-04T02:09:15;102424.06;;;7.06;89.81
20889;BME280;10604;51.976;7.594;2023-02-04T02:11:41;102433.75;;;7.10;90.31
20889;BME280;10604;51.976;7.594;2023-02-04T02:14:07;102435.53;;;7.14;89.83
20889;BME280;10604;51.976;7.594;2023-02-04T02:16:32;102438.19;;;7.19;89.78
20889;BME280;10604;51.976;7.594;2023-02-04T02:18:58;102439.00;;;7.10;90.23
20889;BME280;10604;51.976;7.594;2023-02-04T02:21:43;102438.91;;;7.04;90.57
20889;BME280;10604;51.976;7.594;2023-02-04T02:24:26;102444.38;;;7.22;90.44
20889;BME280;10604;51.976;7.594;2023-02-04T02:26:53;102444.50;;;7.31;89.55
20889;BME280;10604;51.976;7.594;2023-02-04T02:29:19;102453.22;;;7.30;89.24
20889;BME280;10604;51.976;7.594;2023-02-04T02:31:45;102465.31;;;7.19;89.53
20889;BME280;10604;51.976;7.594;2023-02-04T02:34:11;102460.94;;;7.20;89.90
20889;BME280;10604;51.976;7.594;2023-02-04T02:36:36;102458.22;;;7.09;90.82
20889;BME280;10604;51.976;7.594;2023-02-04T02:39:02;102461.13;;;7.35;89.59
20889;BME280;10604;51.976;7.594;2023-02-04T02:41:28;102452.22;;;7.21;90.26
20889;BME280;10604;51.976;7.594;2023-02-04T02:43:53;102449.63;;;7.25;90.47
20889;BME280;10604;51.976;7.594;2023-02-04T02:46:18;102458.34;;;7.21;90.40
20889;BME280;10604;51.976;7.594;2023-02-04T02:48:44;102458.41;;;7.24;90.59
20889;BME280;10604;51.976;7.594;2023-02-04T02:51:09;102458.31;;;7.18;90.72
20889;BME280;10604;51.976;7.594;2023-02-04T02:53:35;102444.50;;;7.34;90.76
20889;BME280;10604;51.976;7.594;2023-02-04T02:56:01;102452.38;;;7.31;90.28
20889;BME280;10604;51.976;7.594;2023-02-04T02:58:31;102453.97;;;7.20;90.01
20889;BME280;10604;51.976;7.594;2023-02-04T03:00:58;102460.19;;;7.28;90.62
20889;BME280;10604;51.976;7.594;2023-02-04T03:03:26;102448.94;;;7.41;89.77
20889;BME280;10604;51.976;7.594;2023-02-04T03:05:57;102460.19;;;7.28;90.08
20889;BME280;10604;51.976;7.594;2023-02-04T03:08:24;102455.84;;;7.32;89.75
20889;BME280;10604;51.976;7.594;2023-02-04T03:10:50;102459.38;;;7.35;90.55
20889;BME280;10604;51.976;7.594;2023-02-04T03:13:16;102456.88;;;7.46;90.12
20889;BME280;10604;51.976;7.594;2023-02-04T03:15:44;102468.97;;;7.33;89.64
20889;BME280;10604;51.976;7.594;2023-02-04T03:18:11;102460.13;;;7.22;90.62
20889;BME280;10604;51.976;7.594;2023-02-04T03:20:37;102461.84;;;7.20;90.99
20889;BME280;10604;51.976;7.594;2023-02-04T03:23:03;102456.66;;;7.26;90.86
20889;BME280;10604;51.976;7.594;2023-02-04T03:25:29;102455.66;;;7.15;91.21
20889;BME280;10604;51.976;7.594;2023-02-04T03:27:56;102462.50;;;7.04;91.34
20889;BME280;10604;51.976;7.594;2023-02-04T03:30:22;102459.19;;;7.17;91.53
20889;BME280;10604;51.976;7.594;2023-02-04T03:32:49;102466.03;;;7.06;91.97
20889;BME280;10604;51.976;7.594;2023-02-04T03:35:15;102465.22;;;7.10;91.59
20889;BME280;10604;51.976;7.594;2023-02-04T03:37:40;102475.59;;;7.01;91.91
20889;BME280;10604;51.976;7.594;2023-02-04T03:40:06;102477.44;;;7.08;92.25
20889;BME280;10604;51.976;7.594;2023-02-04T03:42:31;102471.38;;;7.14;91.95
20889;BME280;10604;51.976;7.594;2023-02-04T03:44:57;102476.78;;;7.27;92.00
20889;BME280;10604;51.976;7.594;2023-02-04T03:47:22;102476.78;;;7.27;91.70
20889;BME280;10604;51.976;7.594;2023-02-04T03:49:47;102476.03;;;7.37;90.91
20889;BME280;10604;51.976;7.594;2023-02-04T03:52:13;102488.25;;;7.35;90.77
20889;BME280;10604;51.976;7.594;2023-02-04T03:54:38;102493.31;;;7.20;91.34
20889;BME280;10604;51.976;7.594;2023-02-04T03:57:03;102495.03;;;7.18;91.39
20889;BME280;10604;51.976;7.594;2023-02-04T03:59:29;102505.38;;;7.03;92.05
20889;BME280;10604;51.976;7.594;2023-02-04T04:01:54;102511.53;;;7.08;92.26
20889;BME280;10604;51.976;7.594;2023-02-04T04:04:20;102507.28;;;7.19;92.35
20889;BME280;10604;51.976;7.594;2023-02-04T04:06:45;102515.81;;;7.00;92.18
20889;BME280;10604;51.976;7.594;2023-02-04T04:09:10;102517.78;;;7.19;91.85
20889;BME280;10604;51.976;7.594;2023-02-04T04:11:36;102512.63;;;7.25;91.27
20889;BME280;10604;51.976;7.594;2023-02-04T04:14:01;102528.13;;;7.07;91.58
20889;BME280;10604;51.976;7.594;2023-02-04T04:16:27;102534.28;;;7.11;91.50
20889;BME280;10604;51.976;7.594;2023-02-04T04:18:53;102529.75;;;6.96;91.80
20889;BME280;10604;51.976;7.594;2023-02-04T04:21:18;102524.44;;;6.93;92.11
20889;BME280;10604;51.976;7.594;2023-02-04T04:23:44;102529.84;;;7.02;92.21
20889;BME280;10604;51.976;7.594;2023-02-04T04:26:09;102530.56;;;6.93;91.96
20889;BME280;10604;51.976;7.594;2023-02-04T04:28:34;102531.03;;;7.28;91.78
20889;BME280;10604;51.976;7.594;2023-02-04T04:31:00;102538.91;;;7.28;91.13
20889;BME280;10604;51.976;7.594;2023-02-04T04:33:25;102533.31;;;7.01;91.56
20889;BME280;10604;51.976;7.594;2023-02-04T04:35:50;102537.50;;;6.90;92.38
20889;BME280;10604;51.976;7.594;2023-02-04T04:38:16;102551.28;;;6.75;92.50
20889;BME280;10604;51.976;7.594;2023-02-04T04:40:41;102552.16;;;6.76;92.39
20889;BME280;10604;51.976;7.594;2023-02-04T04:43:06;102554.84;;;6.79;92.59
20889;BME280;10604;51.976;7.594;2023-02-04T04:45:32;102553.22;;;6.87;93.35
20889;BME280;10604;51.976;7.594;2023-02-04T04:47:57;102555.25;;;7.07;92.77
20889;BME280;10604;51.976;7.594;2023-02-04T04:50:23;102556.84;;;6.95;93.01
20889;BME280;10604;51.976;7.594;2023-02-04T04:52:48;102562.94;;;6.94;92.29
20889;BME280;10604;51.976;7.594;2023-02-04T04:55:13;102564.63;;;6.89;93.07
20889;BME280;10604;51.976;7.594;2023-02-04T04:57:39;102568.97;;;6.88;93.13
20889;BME280;10604;51.976;7.594;2023-02-04T05:00:06;102567.25;;;6.89;93.76
20889;BME280;10604;51.976;7.594;2023-02-04T05:02:32;102566.41;;;6.93;93.33
20889;BME280;10604;51.976;7.594;2023-02-04T05:04:57;102566.50;;;6.99;93.83
20889;BME280;10604;51.976;7.594;2023-02-04T05:07:23;102573.81;;;7.21;93.07
20889;BME280;10604;51.976;7.594;2023-02-04T05:09:48;102582.41;;;7.11;92.90
20889;BME280;10604;51.976;7.594;2023-02-04T05:12:14;102581.88;;;7.36;92.35
20889;BME280;10604;51.976;7.594;2023-02-04T05:14:39;102583.75;;;7.46;91.83
20889;BME280;10604;51.976;7.594;2023-02-04T05:17:04;102595.09;;;7.42;91.65
20889;BME280;10604;51.976;7.594;2023-02-04T05:19:30;102586.34;;;7.43;91.37
20889;BME280;10604;51.976;7.594;2023-02-04T05:21:55;102599.22;;;7.25;92.13
20889;BME280;10604;51.976;7.594;2023-02-04T05:24:21;102600.97;;;7.23;92.65
20889;BME280;10604;51.976;7.594;2023-02-04T05:26:47;102610.50;;;7.18;92.58
20889;BME280;10604;51.976;7.594;2023-02-04T05:29:12;102617.28;;;7.04;92.90
20889;BME280;10604;51.976;7.594;2023-02-04T05:31:38;102619.25;;;7.17;93.38
20889;BME280;10604;51.976;7.594;2023-02-04T05:34:03;102617.56;;;7.22;93.20
20889;BME280;10604;51.976;7.594;2023-02-04T05:36:29;102621.13;;;7.27;92.88
20889;BME280;10604;51.976;7.594;2023-02-04T05:38:54;102621.13;;;7.27;93.20
20889;BME280;10604;51.976;7.594;2023-02-04T05:41:19;102628.13;;;7.28;92.73
20889;BME280;10604;51.976;7.594;2023-02-04T05:43:45;102622.88;;;7.28;92.74
20889;BME280;10604;51.976;7.594;2023-02-04T05:46:10;102617.81;;;7.40;92.90
20889;BME280;10604;51.976;7.594;2023-02-04T05:48:36;102628.28;;;7.37;92.72
20889;BME280;10604;51.976;7.594;2023-02-04T05:51:01;102620.44;;;7.42;92.51
20889;BME280;10604;51.976;7.594;2023-02-04T05:53:26;102635.31;;;7.41;92.14
20889;BME280;10604;51.976;7.594;2023-02-04T05:55:52;102634.25;;;7.27;92.39
20889;BME280;10604;51.976;7.594;2023-02-04T05:58:17;102638.41;;;7.13;93.15
20889;BME280;10604;51.976;7.594;2023-02-04T06:00:42;102641.00;;;7.10;92.79
20889;BME280;10604;51.976;7.594;2023-02-04T06:03:08;102651.34;;;7.01;93.06
20889;BME280;10604;51.976;7.594;2023-02-04T06:05:33;102655.69;;;6.99;93.73
20889;BME280;10604;51.976;7.594;2023-02-04T06:07:59;102655.66;;;6.96;93.91
20889;BME280;10604;51.976;7.594;2023-02-04T06:10:24;102660.91;;;6.96;93.86
20889;BME280;10604;51.976;7.594;2023-02-04T06:12:49;102661.03;;;7.05;93.72
20889;BME280;10604;51.976;7.594;2023-02-04T06:15:15;102656.75;;;7.10;94.19
20889;BME280;10604;51.976;7.594;2023-02-04T06:17:40;102659.38;;;7.10;93.96
20889;BME280;10604;51.976;7.594;2023-02-04T06:20:06;102662.97;;;7.18;93.30
20889;BME280;10604;51.976;7.594;2023-02-04T06:22:32;102661.25;;;7.20;93.13
20889;BME280;10604;51.976;7.594;2023-02-04T06:24:57;102677.53;;;6.98;93.52
20889;BME280;10604;51.976;7.594;2023-02-04T06:27:23;102676.75;;;7.05;94.07
20889;BME280;10604;51.976;7.594;2023-02-04T06:29:49;102679.59;;;7.17;93.49
20889;BME280;10604;51.976;7.594;2023-02-04T06:32:15;102680.44;;;7.16;93.51
20889;BME280;10604;51.976;7.594;2023-02-04T06:34:40;102680.94;;;6.92;93.70
20889;BME280;10604;51.976;7.594;2023-02-04T06:37:06;102683.44;;;6.85;94.14
20889;BME280;10604;51.976;7.594;2023-02-04T06:39:31;102681.88;;;6.96;94.26
20889;BME280;10604;51.976;7.594;2023-02-04T06:41:56;102693.19;;;6.93;94.33
20889;BME280;10604;51.976;7.594;2023-02-04T06:44:22;102685.28;;;6.92;94.68
20889;BME280;10604;51.976;7.594;2023-02-04T06:46:47;102690.88;;;7.13;93.60
20889;BME280;10604;51.976;7.594;2023-02-04T06:49:13;102692.56;;;7.08;93.47
20889;BME280;10604;51.976;7.594;2023-02-04T06:51:39;102694.13;;;6.95;93.45
20889;BME280;10604;51.976;7.594;2023-02-04T06:54:04;102696.88;;;7.03;93.58
20889;BME280;10604;51.976;7.594;2023-02-04T06:56:29;102711.50;;;6.89;93.72
20889;BME280;10604;51.976;7.594;2023-02-04T06:58:55;102715.06;;;6.94;94.18
20889;BME280;10604;51.976;7.594;2023-02-04T07:01:20;102713.38;;;6.99;94.33
20889;BME280;10604;51.976;7.594;2023-02-04T07:03:46;102721.13;;;6.91;94.31
20889;BME280;10604;51.976;7.594;2023-02-04T07:06:11;102729.22;;;7.05;94.12
20889;BME280;10604;51.976;7.594;2023-02-04T07:08:36;102723.84;;;6.96;94.15
20889;BME280;10604;51.976;7.594;2023-02-04T07:11:02;102721.97;;;6.89;94.41
20889;BME280;10604;51.976;7.594;2023-02-04T07:13:27;102723.72;;;6.88;94.65
20889;BME280;10604;51.976;7.594;2023-02-04T07:15:52;102726.28;;;6.85;94.88
20889;BME280;10604;51.976;7.594;2023-02-04T07:18:18;102725.22;;;6.76;94.91
20889;BME280;10604;51.976;7.594;2023-02-04T07:20:44;102723.50;;;6.78;95.10
20889;BME280;10604;51.976;7.594;2023-02-04T07:23:10;102721.63;;;6.71;95.18
20889;BME280;10604;51.976;7.594;2023-02-04T07:25:35;102723.41;;;6.72;95.19
20889;BME280;10604;51.976;7.594;2023-02-04T07:28:00;102732.09;;;6.67;95.68
20889;BME280;10604;51.976;7.594;2023-02-04T07:30:30;102732.13;;;6.71;95.37
20889;BME280;10604;51.976;7.594;2023-02-04T07:32:55;102739.22;;;6.75;95.08
20889;BME280;10604;51.976;7.594;2023-02-04T07:35:21;102740.19;;;6.81;95.10
20889;BME280;10604;51.976;7.594;2023-02-04T07:37:46;102748.03;;;6.80;95.04
20889;BME280;10604;51.976;7.594;2023-02-04T07:40:11;102746.19;;;6.76;95.12
20889;BME280;10604;51.976;7.594;2023-02-04T07:42:37;102746.47;;;6.91;95.20
20889;BME280;10604;51.976;7.594;2023-02-04T07:45:03;102746.34;;;6.82;94.80
20889;BME280;10604;51.976;7.594;2023-02-04T07:47:28;102740.16;;;6.80;95.66
20889;BME280;10604;51.976;7.594;2023-02-04T07:49:54;102728.84;;;6.84;95.72
20889;BME280;10604;51.976;7.594;2023-02-04T07:52:22;102742.06;;;6.88;95.08
20889;BME280;10604;51.976;7.594;2023-02-04T07:54:47;102757.22;;;7.06;95.52
20889;BME280;10604;51.976;7.594;2023-02-04T07:57:13;102758.19;;;7.10;95.32
20889;BME280;10604;51.976;7.594;2023-02-04T07:59:39;102755.56;;;7.11;94.81
20889;BME280;10604;51.976;7.594;2023-02-04T08:02:04;102762.91;;;7.30;94.58
20889;BME280;10604;51.976;7.594;2023-02-04T08:04:30;102768.94;;;7.26;94.05
20889;BME280;10604;51.976;7.594;2023-02-04T08:06:55;102774.28;;;7.31;94.54
20889;BME280;10604;51.976;7.594;2023-02-04T08:09:20;102778.69;;;7.33;94.42
20889;BME280;10604;51.976;7.594;2023-02-04T08:11:46;102784.19;;;7.48;93.78
20889;BME280;10604;51.976;7.594;2023-02-04T08:14:11;102783.22;;;7.43;93.64
20889;BME280;10604;51.976;7.594;2023-02-04T08:16:37;102787.56;;;7.41;93.76
20889;BME280;10604;51.976;7.594;2023-02-04T08:19:03;102785.75;;;7.37;93.89
20889;BME280;10604;51.976;7.594;2023-02-04T08:21:28;102794.84;;;7.58;93.57
20889;BME280;10604;51.976;7.594;2023-02-04T08:23:53;102788.97;;;7.74;92.96
20889;BME280;10604;51.976;7.594;2023-02-04T08:26:19;102801.06;;;7.64;92.17
20889;BME280;10604;51.976;7.594;2023-02-04T08:28:44;102803.75;;;7.69;91.52
20889;BME280;10604;51.976;7.594;2023-02-04T08:31:10;102802.72;;;7.58;91.14
20889;BME280;10604;51.976;7.594;2023-02-04T08:33:37;102807.03;;;7.56;90.33
20889;BME280;10604;51.976;7.594;2023-02-04T08:36:04;102818.72;;;7.73;90.05
20889;BME280;10604;51.976;7.594;2023-02-04T08:38:29;102811.13;;;7.93;88.78
20889;BME280;10604;51.976;7.594;2023-02-04T08:40:55;102824.34;;;7.99;87.76
20889;BME280;10604;51.976;7.594;2023-02-04T08:43:20;102822.34;;;7.81;86.14
20889;BME280;10604;51.976;7.594;2023-02-04T08:45:45;102828.53;;;7.86;86.49
20889;BME280;10604;51.976;7.594;2023-02-04T08:48:11;102832.13;;;7.93;85.20
20889;BME280;10604;51.976;7.594;2023-02-04T08:50:36;102835.34;;;7.75;84.74
20889;BME280;10604;51.976;7.594;2023-02-04T08:53:02;102839.75;;;7.76;84.44
20889;BME280;10604;51.976;7.594;2023-02-04T08:55:28;102844.19;;;7.78;85.19
20889;BME280;10604;51.976;7.594;2023-02-04T08:57:53;102847.50;;;7.67;86.06
20889;BME280;10604;51.976;7.594;2023-02-04T09:00:19;102854.56;;;7.71;85.53
20889;BME280;10604;51.976;7.594;2023-02-04T09:02:44;102858.38;;;7.91;84.86
20889;BME280;10604;51.976;7.594;2023-02-04T09:05:09;102851.41;;;7.93;84.62
20889;BME280;10604;51.976;7.594;2023-02-04T09:07:35;102862.94;;;8.04;84.00
20889;BME280;10604;51.976;7.594;2023-02-04T09:10:00;102857.00;;;8.16;84.61
20889;BME280;10604;51.976;7.594;2023-02-04T09:12:26;102848.34;;;8.24;83.88
20889;BME280;10604;51.976;7.594;2023-02-04T09:14:51;102846.59;;;8.23;82.67
20889;BME280;10604;51.976;7.594;2023-02-04T09:17:16;102857.44;;;8.45;81.57
20889;BME280;10604;51.976;7.594;2023-02-04T09:19:43;102859.28;;;8.52;82.38
20889;BME280;10604;51.976;7.594;2023-02-04T09:22:08;102861.28;;;8.71;81.70
20889;BME280;10604;51.976;7.594;2023-02-04T09:24:34;102846.53;;;8.85;79.19
20889;BME280;10604;51.976;7.594;2023-02-04T09:26:59;102854.41;;;8.85;79.80
20889;BME280;10604;51.976;7.594;2023-02-04T09:29:25;102861.44;;;8.86;80.53
20889;BME280;10604;51.976;7.594;2023-02-04T09:31:50;102865.75;;;8.81;78.71
20889;BME280;10604;51.976;7.594;2023-02-04T09:34:15;102870.22;;;8.88;78.97
20889;BME280;10604;51.976;7.594;2023-02-04T09:36:41;102872.25;;;9.09;78.13
20889;BME280;10604;51.976;7.594;2023-02-04T09:39:07;102867.13;;;9.26;77.57
20889;BME280;10604;51.976;7.594;2023-02-04T09:41:34;102861.84;;;9.23;77.44
20889;BME280;10604;51.976;7.594;2023-02-04T09:44:00;102859.31;;;9.35;74.90
20889;BME280;10604;51.976;7.594;2023-02-04T09:46:28;102863.75;;;9.39;73.62
20889;BME280;10604;51.976;7.594;2023-02-04T09:48:56;102861.81;;;9.20;74.88
20889;BME280;10604;51.976;7.594;2023-02-04T09:51:26;102868.78;;;9.18;73.85
20889;BME280;10604;51.976;7.594;2023-02-04T09:53:54;102868.63;;;8.99;74.25
20889;BME280;10604;51.976;7.594;2023-02-04T09:56:23;102874.72;;;8.97;75.64
20889;BME280;10604;51.976;7.594;2023-02-04T09:58:50;102887.25;;;9.19;74.74
20889;BME280;10604;51.976;7.594;2023-02-04T10:01:19;102890.13;;;9.45;74.87
20889;BME280;10604;51.976;7.594;2023-02-04T10:03:47;102893.06;;;9.77;72.83
20889;BME280;10604;51.976;7.594;2023-02-04T10:06:16;102900.16;;;9.89;72.97
20889;BME280;10604;51.976;7.594;2023-02-04T10:08:43;102903.44;;;9.60;72.39
20889;BME280;10604;51.976;7.594;2023-02-04T10:11:10;102898.16;;;9.60;74.02
20889;BME280;10604;51.976;7.594;2023-02-04T10:13:37;102906.22;;;9.75;73.22
20889;BME280;10604;51.976;7.594;2023-02-04T10:16:12;102902.75;;;9.79;72.71
20889;BME280;10604;51.976;7.594;2023-02-04T10:18:38;102894.75;;;9.70;72.45
20889;BME280;10604;51.976;7.594;2023-02-04T10:21:19;102893.13;;;9.85;73.00
20889;BME280;10604;51.976;7.594;2023-02-04T10:23:54;102899.47;;;10.11;71.20
20889;BME280;10604;51.976;7.594;2023-02-04T10:26:20;102896.69;;;9.91;72.83
20889;BME280;10604;51.976;7.594;2023-02-04T10:28:46;102898.56;;;10.09;72.09
20889;BME280;10604;51.976;7.594;2023-02-04T10:31:38;102897.50;;;9.82;72.50
20889;BME280;10604;51.976;7.594;2023-02-04T10:36:44;102900.50;;;10.30;70.93
20889;BME280;10604;51.976;7.594;2023-02-04T10:39:17;102903.00;;;10.16;71.94
20889;BME280;10604;51.976;7.594;2023-02-04T10:41:51;102899.81;;;10.63;69.60
20889;BME280;10604;51.976;7.594;2023-02-04T10:44:24;102911.31;;;10.81;69.28
20889;BME280;10604;51.976;7.594;2023-02-04T10:47:01;102912.28;;;11.03;67.58
20889;BME280;10604;51.976;7.594;2023-02-04T10:49:28;102921.16;;;11.38;67.60
20889;BME280;10604;51.976;7.594;2023-02-04T10:51:53;102919.47;;;12.16;65.89
20889;BME280;10604;51.976;7.594;2023-02-04T10:54:32;102913.09;;;12.92;61.75
20889;BME280;10604;51.976;7.594;2023-02-04T10:57:05;102913.41;;;13.81;59.48
20889;BME280;10604;51.976;7.594;2023-02-04T10:59:32;102914.47;;;13.60;59.31
20889;BME280;10604;51.976;7.594;2023-02-04T11:01:59;102920.94;;;13.09;60.22
20889;BME280;10604;51.976;7.594;2023-02-04T11:04:26;102933.56;;;12.25;62.18
20889;BME280;10604;51.976;7.594;2023-02-04T11:06:52;102920.38;;;11.96;63.27
20889;BME280;10604;51.976;7.594;2023-02-04T11:09:19;102915.94;;;11.57;65.07
20889;BME280;10604;51.976;7.594;2023-02-04T11:11:47;102924.75;;;11.65;65.96
20889;BME280;10604;51.976;7.594;2023-02-04T11:14:23;102920.25;;;11.23;66.69
20889;BME280;10604;51.976;7.594;2023-02-04T11:16:48;102919.38;;;11.19;67.24
20889;BME280;10604;51.976;7.594;2023-02-04T11:19:14;102920.22;;;11.08;67.32
20889;BME280;10604;51.976;7.594;2023-02-04T11:21:41;102922.84;;;11.00;66.34
20889;BME280;10604;51.976;7.594;2023-02-04T11:39:31;102926.22;;;10.69;68.88
20889;BME280;10604;51.976;7.594;2023-02-04T11:41:58;102924.59;;;11.04;67.78
20889;BME280;10604;51.976;7.594;2023-02-04T11:44:25;102929.03;;;11.08;67.23
20889;BME280;10604;51.976;7.594;2023-02-04T11:46:51;102928.16;;;11.06;66.81
20889;BME280;10604;51.976;7.594;2023-02-04T11:49:20;102922.75;;;10.82;67.82
20889;BME280;10604;51.976;7.594;2023-02-04T11:51:47;102916.53;;;10.69;69.20
20889;BME280;10604;51.976;7.594;2023-02-04T11:54:15;102917.53;;;10.94;68.29
20889;BME280;10604;51.976;7.594;2023-02-04T11:56:44;102913.16;;;11.02;67.18
20889;BME280;10604;51.976;7.594;2023-02-04T11:59:12;102910.50;;;10.99;67.05
20889;BME280;10604;51.976;7.594;2023-02-04T12:01:38;102918.31;;;10.73;68.56
20889;BME280;10604;51.976;7.594;2023-02-04T12:04:20;102917.50;;;10.85;67.81
20889;BME280;10604;51.976;7.594;2023-02-04T12:06:56;102914.84;;;10.88;68.78
20889;BME280;10604;51.976;7.594;2023-02-04T12:09:24;102924.50;;;10.72;67.64
20889;BME280;10604;51.976;7.594;2023-02-04T12:11:55;102932.47;;;10.86;68.09
20889;BME280;10604;51.976;7.594;2023-02-04T12:14:21;102929.81;;;10.89;68.13
20889;BME280;10604;51.976;7.594;2023-02-04T12:16:48;102936.78;;;10.75;66.88
20889;BME280;10604;51.976;7.594;2023-02-04T12:19:16;102933.28;;;10.76;66.34
20889;BME280;10604;51.976;7.594;2023-02-04T12:21:41;102934.97;;;10.62;67.67
20889;BME280;10604;51.976;7.594;2023-02-04T12:24:07;102940.19;;;10.52;68.73
20889;BME280;10604;51.976;7.594;2023-02-04T12:26:32;102943.81;;;10.70;68.95
20889;BME280;10604;51.976;7.594;2023-02-04T12:28:58;102938.47;;;10.54;69.23
20889;BME280;10604;51.976;7.594;2023-02-04T12:31:27;102949.75;;;10.29;69.44
20889;BME280;10604;51.976;7.594;2023-02-04T12:33:52;102940.06;;;10.28;69.92
20889;BME280;10604;51.976;7.594;2023-02-04T12:36:18;102948.81;;;10.24;70.62
20889;BME280;10604;51.976;7.594;2023-02-04T12:38:44;102953.31;;;10.36;69.35
20889;BME280;10604;51.976;7.594;2023-02-04T12:41:09;102942.13;;;10.84;68.20
20889;BME280;10604;51.976;7.594;2023-02-04T12:43:35;102941.34;;;11.08;68.46
20889;BME280;10604;51.976;7.594;2023-02-04T12:46:00;102945.75;;;11.16;67.08
20889;BME280;10604;51.976;7.594;2023-02-04T12:48:26;102949.22;;;10.94;67.49
20889;BME280;10604;51.976;7.594;2023-02-04T12:50:51;102950.84;;;10.68;68.84
20889;BME280;10604;51.976;7.594;2023-02-04T12:53:16;102954.16;;;10.33;68.69
20889;BME280;10604;51.976;7.594;2023-02-04T12:55:42;102957.75;;;10.47;69.08
20889;BME280;10604;51.976;7.594;2023-02-04T12:58:07;102959.53;;;10.48;68.36
20889;BME280;10604;51.976;7.594;2023-02-04T13:00:33;102948.97;;;10.44;68.43
20889;BME280;10604;51.976;7.594;2023-02-04T13:02:59;102957.75;;;10.44;69.54
20889;BME280;10604;51.976;7.594;2023-02-04T13:05:25;102952.38;;;10.29;69.37
20889;BME280;10604;51.976;7.594;2023-02-04T13:07:50;102953.25;;;10.28;69.13
20889;BME280;10604;51.976;7.594;2023-02-04T13:10:16;102947.88;;;10.17;70.60